sensor_id;sensor_type;location;lat;lon;timestamp;P1;durP1;ratioP1;P2;durP2;ratioP2
50745;SDS011;36711;51.972;21.204;2022-12-18T00:00:11;14.10;;;6.20;;
50745;SDS011;36711;51.972;21.204;2022-12-18T00:03:20;13.20;;;6.10;;
50745;SDS011;36711;51.972;21.204;2022-12-18T00:05:49;10.30;;;5.30;;
50745;SDS011;36711;51.972;21.204;2022-12-18T00:08:18;12.40;;;5.40;;
50745;SDS011;36711;51.972;21.204;2022-12-18T00:10:47;13.90;;;6.40;;
50745;SDS011;36711;51.972;21.204;2022-12-18T00:13:16;16.10;;;6.30;;
50745;SDS011;36711;51.972;21.204;2022-12-18T00:15:45;13.70;;;6.10;;
50745;SDS011;36711;51.972;21.204;2022-12-18T00:18:14;13.90;;;6.30;;
50745;SDS011;36711;51.972;21.204;2022-12-18T00:20:48;14.40;;;6.30;;
50745;SDS011;36711;51.972;21.204;2022-12-18T00:23:16;16.60;;;6.30;;
50745;SDS011;36711;51.972;21.204;2022-12-18T00:25:45;14.20;;;6.10;;
50745;SDS011;36711;51.972;21.204;2022-12-18T00:28:14;12.80;;;6.20;;
50745;SDS011;36711;51.972;21.204;2022-12-18T00:30:42;16.10;;;7.20;;
50745;SDS011;36711;51.972;21.204;2022-12-18T00:33:11;14.30;;;6.30;;
50745;SDS011;36711;51.972;21.204;2022-12-18T00:35:40;16.00;;;6.70;;
50745;SDS011;36711;51.972;21.204;2022-12-18T00:38:09;15.70;;;6.70;;
50745;SDS011;36711;51.972;21.204;2022-12-18T00:40:37;12.20;;;6.50;;
50745;SDS011;36711;51.972;21.204;2022-12-18T00:43:06;14.70;;;7.60;;
50745;SDS011;36711;51.972;21.204;2022-12-18T00:45:35;14.60;;;7.20;;
50745;SDS011;36711;51.972;21.204;2022-12-18T00:48:04;17.20;;;6.70;;
50745;SDS011;36711;51.972;21.204;2022-12-18T00:50:33;19.90;;;7.20;;
50745;SDS011;36711;51.972;21.204;2022-12-18T00:53:02;18.50;;;7.60;;
50745;SDS011;36711;51.972;21.204;2022-12-18T00:55:31;20.50;;;7.30;;
50745;SDS011;36711;51.972;21.204;2022-12-18T00:57:59;19.70;;;7.40;;
50745;SDS011;36711;51.972;21.204;2022-12-18T01:00:28;16.60;;;7.00;;
50745;SDS011;36711;51.972;21.204;2022-12-18T01:02:57;17.80;;;7.10;;
50745;SDS011;36711;51.972;21.204;2022-12-18T01:05:28;18.20;;;7.40;;
50745;SDS011;36711;51.972;21.204;2022-12-18T01:07:57;12.40;;;6.40;;
50745;SDS011;36711;51.972;21.204;2022-12-18T01:10:25;15.40;;;7.00;;
50745;SDS011;36711;51.972;21.204;2022-12-18T01:12:54;19.20;;;7.50;;
50745;SDS011;36711;51.972;21.204;2022-12-18T01:15:23;15.30;;;7.30;;
50745;SDS011;36711;51.972;21.204;2022-12-18T01:17:52;15.70;;;6.90;;
50745;SDS011;36711;51.972;21.204;2022-12-18T01:20:21;12.00;;;6.90;;
50745;SDS011;36711;51.972;21.204;2022-12-18T01:22:50;11.90;;;5.90;;
50745;SDS011;36711;51.972;21.204;2022-12-18T01:25:19;17.10;;;7.20;;
50745;SDS011;36711;51.972;21.204;2022-12-18T01:27:48;17.60;;;6.70;;
50745;SDS011;36711;51.972;21.204;2022-12-18T01:30:16;19.80;;;8.20;;
50745;SDS011;36711;51.972;21.204;2022-12-18T01:32:45;18.10;;;7.20;;
50745;SDS011;36711;51.972;21.204;2022-12-18T01:35:14;16.50;;;7.40;;
50745;SDS011;36711;51.972;21.204;2022-12-18T01:37:43;18.30;;;7.60;;
50745;SDS011;36711;51.972;21.204;2022-12-18T01:40:11;17.50;;;8.10;;
50745;SDS011;36711;51.972;21.204;2022-12-18T01:42:40;14.80;;;6.90;;
50745;SDS011;36711;51.972;21.204;2022-12-18T01:47:48;13.90;;;7.20;;
50745;SDS011;36711;51.972;21.204;2022-12-18T01:50:19;17.30;;;7.60;;
50745;SDS011;36711;51.972;21.204;2022-12-18T01:52:50;14.50;;;7.00;;
50745;SDS011;36711;51.972;21.204;2022-12-18T01:55:20;16.60;;;8.30;;
50745;SDS011;36711;51.972;21.204;2022-12-18T01:57:52;17.40;;;8.30;;
50745;SDS011;36711;51.972;21.204;2022-12-18T02:00:22;15.90;;;8.00;;
50745;SDS011;36711;51.972;21.204;2022-12-18T02:02:51;16.90;;;8.20;;
50745;SDS011;36711;51.972;21.204;2022-12-18T02:05:44;19.70;;;9.60;;
50745;SDS011;36711;51.972;21.204;2022-12-18T02:08:19;18.20;;;8.40;;
50745;SDS011;36711;51.972;21.204;2022-12-18T02:13:39;17.70;;;8.20;;
50745;SDS011;36711;51.972;21.204;2022-12-18T02:18:45;17.20;;;7.00;;
50745;SDS011;36711;51.972;21.204;2022-12-18T02:21:26;20.10;;;8.40;;
50745;SDS011;36711;51.972;21.204;2022-12-18T02:26:51;13.90;;;6.60;;
50745;SDS011;36711;51.972;21.204;2022-12-18T02:29:24;15.90;;;7.00;;
50745;SDS011;36711;51.972;21.204;2022-12-18T02:34:26;15.80;;;6.20;;
50745;SDS011;36711;51.972;21.204;2022-12-18T02:36:57;14.60;;;5.80;;
50745;SDS011;36711;51.972;21.204;2022-12-18T02:39:26;12.60;;;6.40;;
50745;SDS011;36711;51.972;21.204;2022-12-18T02:41:57;14.70;;;6.40;;
50745;SDS011;36711;51.972;21.204;2022-12-18T02:44:26;16.10;;;6.20;;
50745;SDS011;36711;51.972;21.204;2022-12-18T02:46:55;14.00;;;6.40;;
50745;SDS011;36711;51.972;21.204;2022-12-18T02:52:20;16.50;;;6.50;;
50745;SDS011;36711;51.972;21.204;2022-12-18T03:00:28;14.40;;;7.30;;
50745;SDS011;36711;51.972;21.204;2022-12-18T03:05:30;15.60;;;6.50;;
50745;SDS011;36711;51.972;21.204;2022-12-18T03:08:03;18.40;;;6.80;;
50745;SDS011;36711;51.972;21.204;2022-12-18T03:10:35;16.70;;;6.40;;
50745;SDS011;36711;51.972;21.204;2022-12-18T03:13:12;16.00;;;6.50;;
50745;SDS011;36711;51.972;21.204;2022-12-18T03:15:44;15.00;;;6.50;;
50745;SDS011;36711;51.972;21.204;2022-12-18T03:18:21;15.00;;;6.80;;
50745;SDS011;36711;51.972;21.204;2022-12-18T03:20:52;18.30;;;6.40;;
50745;SDS011;36711;51.972;21.204;2022-12-18T03:23:22;18.00;;;6.70;;
50745;SDS011;36711;51.972;21.204;2022-12-18T03:25:56;15.70;;;7.30;;
50745;SDS011;36711;51.972;21.204;2022-12-18T03:28:32;18.80;;;7.10;;
50745;SDS011;36711;51.972;21.204;2022-12-18T03:31:01;14.50;;;6.50;;
50745;SDS011;36711;51.972;21.204;2022-12-18T03:33:34;13.50;;;6.60;;
50745;SDS011;36711;51.972;21.204;2022-12-18T03:36:05;21.40;;;6.70;;
50745;SDS011;36711;51.972;21.204;2022-12-18T03:38:35;18.30;;;7.70;;
50745;SDS011;36711;51.972;21.204;2022-12-18T03:41:17;19.40;;;6.40;;
50745;SDS011;36711;51.972;21.204;2022-12-18T03:46:42;16.50;;;6.50;;
50745;SDS011;36711;51.972;21.204;2022-12-18T03:54:16;16.80;;;8.10;;
50745;SDS011;36711;51.972;21.204;2022-12-18T03:56:46;17.90;;;7.30;;
50745;SDS011;36711;51.972;21.204;2022-12-18T03:59:16;18.30;;;7.10;;
50745;SDS011;36711;51.972;21.204;2022-12-18T04:01:49;20.20;;;7.60;;
50745;SDS011;36711;51.972;21.204;2022-12-18T04:04:19;19.60;;;7.30;;
50745;SDS011;36711;51.972;21.204;2022-12-18T04:06:48;11.60;;;5.80;;
50745;SDS011;36711;51.972;21.204;2022-12-18T04:09:19;15.20;;;7.30;;
50745;SDS011;36711;51.972;21.204;2022-12-18T04:11:48;20.60;;;7.90;;
50745;SDS011;36711;51.972;21.204;2022-12-18T04:14:17;15.20;;;7.50;;
50745;SDS011;36711;51.972;21.204;2022-12-18T04:16:46;19.20;;;7.70;;
50745;SDS011;36711;51.972;21.204;2022-12-18T04:19:15;20.20;;;8.10;;
50745;SDS011;36711;51.972;21.204;2022-12-18T04:21:44;17.60;;;7.40;;
50745;SDS011;36711;51.972;21.204;2022-12-18T04:24:12;19.90;;;7.60;;
50745;SDS011;36711;51.972;21.204;2022-12-18T04:26:41;19.70;;;8.50;;
50745;SDS011;36711;51.972;21.204;2022-12-18T04:29:10;17.20;;;7.50;;
50745;SDS011;36711;51.972;21.204;2022-12-18T04:31:39;26.00;;;8.30;;
50745;SDS011;36711;51.972;21.204;2022-12-18T04:34:07;19.90;;;7.80;;
50745;SDS011;36711;51.972;21.204;2022-12-18T04:36:36;20.60;;;7.70;;
50745;SDS011;36711;51.972;21.204;2022-12-18T04:39:05;20.20;;;8.30;;
50745;SDS011;36711;51.972;21.204;2022-12-18T04:41:34;17.50;;;7.90;;
50745;SDS011;36711;51.972;21.204;2022-12-18T04:44:03;25.20;;;7.30;;
50745;SDS011;36711;51.972;21.204;2022-12-18T04:46:32;22.60;;;8.10;;
50745;SDS011;36711;51.972;21.204;2022-12-18T04:49:01;20.60;;;8.10;;
50745;SDS011;36711;51.972;21.204;2022-12-18T04:51:30;17.30;;;7.50;;
50745;SDS011;36711;51.972;21.204;2022-12-18T04:53:58;19.80;;;7.80;;
50745;SDS011;36711;51.972;21.204;2022-12-18T04:56:27;19.30;;;7.60;;
50745;SDS011;36711;51.972;21.204;2022-12-18T04:58:56;22.40;;;8.20;;
50745;SDS011;36711;51.972;21.204;2022-12-18T05:01:24;16.00;;;6.60;;
50745;SDS011;36711;51.972;21.204;2022-12-18T05:04:02;17.90;;;6.80;;
50745;SDS011;36711;51.972;21.204;2022-12-18T05:06:31;18.70;;;7.10;;
50745;SDS011;36711;51.972;21.204;2022-12-18T05:09:00;17.40;;;6.90;;
50745;SDS011;36711;51.972;21.204;2022-12-18T05:11:28;18.10;;;6.50;;
50745;SDS011;36711;51.972;21.204;2022-12-18T05:13:57;16.00;;;6.80;;
50745;SDS011;36711;51.972;21.204;2022-12-18T05:16:26;19.70;;;7.20;;
50745;SDS011;36711;51.972;21.204;2022-12-18T05:18:55;17.50;;;5.80;;
50745;SDS011;36711;51.972;21.204;2022-12-18T05:21:24;17.30;;;7.00;;
50745;SDS011;36711;51.972;21.204;2022-12-18T05:23:52;14.20;;;6.90;;
50745;SDS011;36711;51.972;21.204;2022-12-18T05:26:21;16.00;;;6.40;;
50745;SDS011;36711;51.972;21.204;2022-12-18T05:28:50;18.40;;;7.50;;
50745;SDS011;36711;51.972;21.204;2022-12-18T05:31:19;18.20;;;6.90;;
50745;SDS011;36711;51.972;21.204;2022-12-18T05:33:48;18.60;;;7.20;;
50745;SDS011;36711;51.972;21.204;2022-12-18T05:36:17;15.90;;;7.00;;
50745;SDS011;36711;51.972;21.204;2022-12-18T05:38:45;15.70;;;6.90;;
50745;SDS011;36711;51.972;21.204;2022-12-18T05:41:14;15.50;;;6.40;;
50745;SDS011;36711;51.972;21.204;2022-12-18T05:43:43;18.40;;;7.10;;
50745;SDS011;36711;51.972;21.204;2022-12-18T05:46:13;16.20;;;6.60;;
50745;SDS011;36711;51.972;21.204;2022-12-18T05:48:43;14.90;;;6.60;;
50745;SDS011;36711;51.972;21.204;2022-12-18T05:51:15;19.00;;;6.40;;
50745;SDS011;36711;51.972;21.204;2022-12-18T05:53:44;18.30;;;5.90;;
50745;SDS011;36711;51.972;21.204;2022-12-18T05:56:14;17.30;;;5.90;;
50745;SDS011;36711;51.972;21.204;2022-12-18T05:58:44;19.60;;;6.90;;
50745;SDS011;36711;51.972;21.204;2022-12-18T06:01:17;19.60;;;7.50;;
50745;SDS011;36711;51.972;21.204;2022-12-18T06:03:46;21.00;;;7.60;;
50745;SDS011;36711;51.972;21.204;2022-12-18T06:06:19;19.10;;;6.80;;
50745;SDS011;36711;51.972;21.204;2022-12-18T06:08:48;19.60;;;6.90;;
50745;SDS011;36711;51.972;21.204;2022-12-18T06:11:18;16.40;;;7.10;;
50745;SDS011;36711;51.972;21.204;2022-12-18T06:13:51;21.70;;;7.80;;
50745;SDS011;36711;51.972;21.204;2022-12-18T06:16:27;23.80;;;6.90;;
50745;SDS011;36711;51.972;21.204;2022-12-18T06:18:56;15.80;;;6.90;;
50745;SDS011;36711;51.972;21.204;2022-12-18T06:21:26;24.60;;;8.90;;
50745;SDS011;36711;51.972;21.204;2022-12-18T06:23:55;23.90;;;7.60;;
50745;SDS011;36711;51.972;21.204;2022-12-18T06:26:24;19.90;;;7.30;;
50745;SDS011;36711;51.972;21.204;2022-12-18T06:28:56;22.50;;;8.40;;
50745;SDS011;36711;51.972;21.204;2022-12-18T06:31:25;20.90;;;7.30;;
50745;SDS011;36711;51.972;21.204;2022-12-18T06:33:54;17.40;;;6.90;;
50745;SDS011;36711;51.972;21.204;2022-12-18T06:36:22;21.60;;;7.70;;
50745;SDS011;36711;51.972;21.204;2022-12-18T06:38:51;17.70;;;7.70;;
50745;SDS011;36711;51.972;21.204;2022-12-18T06:41:20;19.90;;;7.70;;
50745;SDS011;36711;51.972;21.204;2022-12-18T06:43:49;19.20;;;7.80;;
50745;SDS011;36711;51.972;21.204;2022-12-18T06:46:22;20.80;;;7.30;;
50745;SDS011;36711;51.972;21.204;2022-12-18T06:48:50;15.70;;;6.20;;
50745;SDS011;36711;51.972;21.204;2022-12-18T06:51:20;19.90;;;7.60;;
50745;SDS011;36711;51.972;21.204;2022-12-18T06:53:49;20.40;;;6.90;;
50745;SDS011;36711;51.972;21.204;2022-12-18T06:56:18;18.00;;;6.70;;
50745;SDS011;36711;51.972;21.204;2022-12-18T06:58:47;15.60;;;6.70;;
50745;SDS011;36711;51.972;21.204;2022-12-18T07:01:16;17.80;;;6.90;;
50745;SDS011;36711;51.972;21.204;2022-12-18T07:03:45;21.60;;;7.20;;
50745;SDS011;36711;51.972;21.204;2022-12-18T07:06:14;15.10;;;6.20;;
50745;SDS011;36711;51.972;21.204;2022-12-18T07:08:44;16.50;;;6.50;;
50745;SDS011;36711;51.972;21.204;2022-12-18T07:11:13;18.90;;;7.70;;
50745;SDS011;36711;51.972;21.204;2022-12-18T07:13:42;22.40;;;7.00;;
50745;SDS011;36711;51.972;21.204;2022-12-18T07:16:13;20.40;;;7.40;;
50745;SDS011;36711;51.972;21.204;2022-12-18T07:18:50;21.80;;;7.00;;
50745;SDS011;36711;51.972;21.204;2022-12-18T07:21:19;18.10;;;6.30;;
50745;SDS011;36711;51.972;21.204;2022-12-18T07:23:48;17.60;;;7.20;;
50745;SDS011;36711;51.972;21.204;2022-12-18T07:26:17;18.10;;;5.80;;
50745;SDS011;36711;51.972;21.204;2022-12-18T07:28:47;16.20;;;6.70;;
50745;SDS011;36711;51.972;21.204;2022-12-18T07:31:17;20.70;;;7.50;;
50745;SDS011;36711;51.972;21.204;2022-12-18T07:33:46;18.60;;;7.10;;
50745;SDS011;36711;51.972;21.204;2022-12-18T07:36:15;15.80;;;7.00;;
50745;SDS011;36711;51.972;21.204;2022-12-18T07:38:46;21.40;;;8.20;;
50745;SDS011;36711;51.972;21.204;2022-12-18T07:41:15;17.90;;;6.90;;
50745;SDS011;36711;51.972;21.204;2022-12-18T07:43:44;15.50;;;6.40;;
50745;SDS011;36711;51.972;21.204;2022-12-18T07:46:13;15.30;;;6.30;;
50745;SDS011;36711;51.972;21.204;2022-12-18T07:48:43;16.20;;;6.50;;
50745;SDS011;36711;51.972;21.204;2022-12-18T07:51:17;19.00;;;7.80;;
50745;SDS011;36711;51.972;21.204;2022-12-18T07:53:47;21.10;;;8.00;;
50745;SDS011;36711;51.972;21.204;2022-12-18T07:56:20;20.40;;;8.20;;
50745;SDS011;36711;51.972;21.204;2022-12-18T07:58:58;22.40;;;8.30;;
50745;SDS011;36711;51.972;21.204;2022-12-18T08:01:28;23.60;;;8.40;;
50745;SDS011;36711;51.972;21.204;2022-12-18T08:03:57;24.90;;;8.60;;
50745;SDS011;36711;51.972;21.204;2022-12-18T08:06:26;19.70;;;8.10;;
50745;SDS011;36711;51.972;21.204;2022-12-18T08:08:55;21.40;;;8.10;;
50745;SDS011;36711;51.972;21.204;2022-12-18T08:11:24;22.60;;;7.70;;
50745;SDS011;36711;51.972;21.204;2022-12-18T08:13:54;19.10;;;7.70;;
50745;SDS011;36711;51.972;21.204;2022-12-18T08:16:23;16.70;;;7.90;;
50745;SDS011;36711;51.972;21.204;2022-12-18T08:18:52;19.10;;;7.60;;
50745;SDS011;36711;51.972;21.204;2022-12-18T08:21:26;20.60;;;8.90;;
50745;SDS011;36711;51.972;21.204;2022-12-18T08:23:56;22.50;;;8.10;;
50745;SDS011;36711;51.972;21.204;2022-12-18T08:26:25;22.60;;;9.00;;
50745;SDS011;36711;51.972;21.204;2022-12-18T08:28:55;23.40;;;8.80;;
50745;SDS011;36711;51.972;21.204;2022-12-18T08:31:25;22.10;;;8.70;;
50745;SDS011;36711;51.972;21.204;2022-12-18T08:33:54;21.30;;;9.10;;
50745;SDS011;36711;51.972;21.204;2022-12-18T08:36:24;25.50;;;9.70;;
50745;SDS011;36711;51.972;21.204;2022-12-18T08:38:54;25.30;;;9.20;;
50745;SDS011;36711;51.972;21.204;2022-12-18T08:41:23;26.40;;;9.90;;
50745;SDS011;36711;51.972;21.204;2022-12-18T08:43:52;27.00;;;9.30;;
50745;SDS011;36711;51.972;21.204;2022-12-18T08:46:53;21.50;;;8.60;;
50745;SDS011;36711;51.972;21.204;2022-12-18T08:49:21;23.10;;;9.20;;
50745;SDS011;36711;51.972;21.204;2022-12-18T08:51:53;26.60;;;9.30;;
50745;SDS011;36711;51.972;21.204;2022-12-18T08:54:22;29.60;;;10.50;;
50745;SDS011;36711;51.972;21.204;2022-12-18T08:56:51;25.90;;;10.20;;
50745;SDS011;36711;51.972;21.204;2022-12-18T08:59:20;26.20;;;10.70;;
50745;SDS011;36711;51.972;21.204;2022-12-18T09:01:49;25.80;;;10.90;;
50745;SDS011;36711;51.972;21.204;2022-12-18T09:04:18;27.10;;;10.40;;
50745;SDS011;36711;51.972;21.204;2022-12-18T09:06:47;24.20;;;10.30;;
50745;SDS011;36711;51.972;21.204;2022-12-18T09:09:15;23.70;;;9.00;;
50745;SDS011;36711;51.972;21.204;2022-12-18T09:11:44;29.00;;;11.30;;
50745;SDS011;36711;51.972;21.204;2022-12-18T09:14:13;30.10;;;11.00;;
50745;SDS011;36711;51.972;21.204;2022-12-18T09:16:42;25.30;;;9.90;;
50745;SDS011;36711;51.972;21.204;2022-12-18T09:19:11;26.90;;;9.80;;
50745;SDS011;36711;51.972;21.204;2022-12-18T09:21:40;25.50;;;10.40;;
50745;SDS011;36711;51.972;21.204;2022-12-18T09:24:15;25.00;;;10.90;;
50745;SDS011;36711;51.972;21.204;2022-12-18T09:26:44;32.00;;;9.70;;
50745;SDS011;36711;51.972;21.204;2022-12-18T09:29:15;20.00;;;8.90;;
50745;SDS011;36711;51.972;21.204;2022-12-18T09:31:47;27.00;;;9.90;;
50745;SDS011;36711;51.972;21.204;2022-12-18T09:34:16;23.40;;;9.90;;
50745;SDS011;36711;51.972;21.204;2022-12-18T09:36:45;22.80;;;9.50;;
50745;SDS011;36711;51.972;21.204;2022-12-18T09:39:15;25.70;;;10.00;;
50745;SDS011;36711;51.972;21.204;2022-12-18T09:41:54;23.30;;;10.20;;
50745;SDS011;36711;51.972;21.204;2022-12-18T09:44:35;23.30;;;9.70;;
50745;SDS011;36711;51.972;21.204;2022-12-18T09:47:15;20.10;;;9.00;;
50745;SDS011;36711;51.972;21.204;2022-12-18T09:49:49;22.30;;;9.60;;
50745;SDS011;36711;51.972;21.204;2022-12-18T09:52:23;24.00;;;9.20;;
50745;SDS011;36711;51.972;21.204;2022-12-18T09:54:56;21.80;;;9.20;;
50745;SDS011;36711;51.972;21.204;2022-12-18T09:57:28;20.70;;;8.70;;
50745;SDS011;36711;51.972;21.204;2022-12-18T10:00:03;31.10;;;9.40;;
50745;SDS011;36711;51.972;21.204;2022-12-18T10:02:32;24.20;;;10.30;;
50745;SDS011;36711;51.972;21.204;2022-12-18T10:07:44;22.80;;;9.60;;
50745;SDS011;36711;51.972;21.204;2022-12-18T10:10:21;21.80;;;9.20;;
50745;SDS011;36711;51.972;21.204;2022-12-18T10:12:55;22.60;;;9.70;;
50745;SDS011;36711;51.972;21.204;2022-12-18T10:15:34;26.50;;;10.00;;
50745;SDS011;36711;51.972;21.204;2022-12-18T10:18:14;24.30;;;10.30;;
50745;SDS011;36711;51.972;21.204;2022-12-18T10:20:51;26.60;;;11.10;;
50745;SDS011;36711;51.972;21.204;2022-12-18T10:23:33;26.70;;;10.30;;
50745;SDS011;36711;51.972;21.204;2022-12-18T10:26:10;26.50;;;10.90;;
50745;SDS011;36711;51.972;21.204;2022-12-18T10:28:40;23.60;;;10.00;;
50745;SDS011;36711;51.972;21.204;2022-12-18T10:31:14;30.00;;;13.30;;
50745;SDS011;36711;51.972;21.204;2022-12-18T10:33:45;26.90;;;10.80;;
50745;SDS011;36711;51.972;21.204;2022-12-18T10:36:14;25.70;;;10.80;;
50745;SDS011;36711;51.972;21.204;2022-12-18T10:38:42;23.00;;;10.40;;
50745;SDS011;36711;51.972;21.204;2022-12-18T10:43:50;24.80;;;11.40;;
50745;SDS011;36711;51.972;21.204;2022-12-18T10:46:38;26.30;;;10.90;;
50745;SDS011;36711;51.972;21.204;2022-12-18T10:49:17;23.30;;;11.00;;
50745;SDS011;36711;51.972;21.204;2022-12-18T10:51:47;27.40;;;12.00;;
50745;SDS011;36711;51.972;21.204;2022-12-18T10:54:21;29.50;;;14.10;;
50745;SDS011;36711;51.972;21.204;2022-12-18T10:56:50;32.00;;;14.10;;
50745;SDS011;36711;51.972;21.204;2022-12-18T10:59:19;28.90;;;12.10;;
50745;SDS011;36711;51.972;21.204;2022-12-18T11:01:55;25.20;;;12.10;;
50745;SDS011;36711;51.972;21.204;2022-12-18T11:04:28;25.00;;;10.60;;
50745;SDS011;36711;51.972;21.204;2022-12-18T11:09:32;24.00;;;10.30;;
50745;SDS011;36711;51.972;21.204;2022-12-18T11:12:02;23.30;;;10.30;;
50745;SDS011;36711;51.972;21.204;2022-12-18T11:14:33;24.60;;;10.60;;
50745;SDS011;36711;51.972;21.204;2022-12-18T11:17:02;27.50;;;11.00;;
50745;SDS011;36711;51.972;21.204;2022-12-18T11:19:58;19.10;;;7.20;;
50745;SDS011;36711;51.972;21.204;2022-12-18T11:25:00;28.50;;;11.60;;
50745;SDS011;36711;51.972;21.204;2022-12-18T11:27:54;24.40;;;11.10;;
50745;SDS011;36711;51.972;21.204;2022-12-18T11:35:40;29.60;;;12.30;;
50745;SDS011;36711;51.972;21.204;2022-12-18T11:38:12;33.30;;;12.20;;
50745;SDS011;36711;51.972;21.204;2022-12-18T11:40:43;29.80;;;11.90;;
50745;SDS011;36711;51.972;21.204;2022-12-18T11:43:14;28.20;;;11.90;;
50745;SDS011;36711;51.972;21.204;2022-12-18T11:48:34;42.20;;;15.60;;
50745;SDS011;36711;51.972;21.204;2022-12-18T11:51:09;41.70;;;16.00;;
50745;SDS011;36711;51.972;21.204;2022-12-18T11:53:39;35.90;;;14.20;;
50745;SDS011;36711;51.972;21.204;2022-12-18T12:04:31;30.40;;;12.60;;
50745;SDS011;36711;51.972;21.204;2022-12-18T12:13:03;32.80;;;14.60;;
50745;SDS011;36711;51.972;21.204;2022-12-18T12:26:06;31.30;;;11.60;;
50745;SDS011;36711;51.972;21.204;2022-12-18T12:28:52;30.00;;;11.40;;
50745;SDS011;36711;51.972;21.204;2022-12-18T12:31:39;31.40;;;11.50;;
50745;SDS011;36711;51.972;21.204;2022-12-18T12:39:35;23.10;;;10.60;;
50745;SDS011;36711;51.972;21.204;2022-12-18T12:42:05;36.10;;;11.80;;
50745;SDS011;36711;51.972;21.204;2022-12-18T12:44:54;28.70;;;10.80;;
50745;SDS011;36711;51.972;21.204;2022-12-18T12:47:31;28.90;;;10.50;;
50745;SDS011;36711;51.972;21.204;2022-12-18T12:50:02;29.20;;;12.30;;
50745;SDS011;36711;51.972;21.204;2022-12-18T12:52:37;28.60;;;11.60;;
50745;SDS011;36711;51.972;21.204;2022-12-18T12:55:07;29.10;;;12.20;;
50745;SDS011;36711;51.972;21.204;2022-12-18T12:57:48;38.20;;;12.70;;
50745;SDS011;36711;51.972;21.204;2022-12-18T13:00:19;28.00;;;12.70;;
50745;SDS011;36711;51.972;21.204;2022-12-18T13:08:03;28.70;;;12.40;;
50745;SDS011;36711;51.972;21.204;2022-12-18T13:10:35;31.80;;;12.90;;
50745;SDS011;36711;51.972;21.204;2022-12-18T13:13:09;35.00;;;12.60;;
50745;SDS011;36711;51.972;21.204;2022-12-18T13:15:49;29.30;;;11.70;;
50745;SDS011;36711;51.972;21.204;2022-12-18T13:18:31;34.50;;;12.80;;
50745;SDS011;36711;51.972;21.204;2022-12-18T13:21:08;32.80;;;13.10;;
50745;SDS011;36711;51.972;21.204;2022-12-18T13:23:40;32.70;;;12.50;;
50745;SDS011;36711;51.972;21.204;2022-12-18T13:31:28;33.30;;;13.20;;
50745;SDS011;36711;51.972;21.204;2022-12-18T13:36:56;30.30;;;12.10;;
50745;SDS011;36711;51.972;21.204;2022-12-18T13:39:33;33.70;;;13.90;;
50745;SDS011;36711;51.972;21.204;2022-12-18T13:44:40;36.40;;;14.20;;
50745;SDS011;36711;51.972;21.204;2022-12-18T13:50:20;27.50;;;11.70;;
50745;SDS011;36711;51.972;21.204;2022-12-18T13:52:50;26.90;;;11.50;;
50745;SDS011;36711;51.972;21.204;2022-12-18T13:55:19;32.30;;;14.10;;
50745;SDS011;36711;51.972;21.204;2022-12-18T13:57:49;28.80;;;10.80;;
50745;SDS011;36711;51.972;21.204;2022-12-18T14:02:48;34.60;;;12.10;;
50745;SDS011;36711;51.972;21.204;2022-12-18T14:05:31;30.60;;;12.30;;
50745;SDS011;36711;51.972;21.204;2022-12-18T14:08:08;27.20;;;11.30;;
50745;SDS011;36711;51.972;21.204;2022-12-18T14:10:41;31.00;;;12.00;;
50745;SDS011;36711;51.972;21.204;2022-12-18T14:13:19;29.70;;;12.80;;
50745;SDS011;36711;51.972;21.204;2022-12-18T14:15:50;33.40;;;12.90;;
50745;SDS011;36711;51.972;21.204;2022-12-18T14:18:20;32.60;;;12.30;;
50745;SDS011;36711;51.972;21.204;2022-12-18T14:20:51;34.50;;;12.30;;
50745;SDS011;36711;51.972;21.204;2022-12-18T14:23:28;33.50;;;13.50;;
50745;SDS011;36711;51.972;21.204;2022-12-18T14:25:57;32.30;;;12.50;;
50745;SDS011;36711;51.972;21.204;2022-12-18T14:28:42;32.30;;;12.30;;
50745;SDS011;36711;51.972;21.204;2022-12-18T14:31:24;30.30;;;12.20;;
50745;SDS011;36711;51.972;21.204;2022-12-18T14:33:53;30.80;;;11.60;;
50745;SDS011;36711;51.972;21.204;2022-12-18T14:36:26;32.30;;;11.60;;
50745;SDS011;36711;51.972;21.204;2022-12-18T14:38:56;26.00;;;11.20;;
50745;SDS011;36711;51.972;21.204;2022-12-18T14:41:25;28.60;;;11.10;;
50745;SDS011;36711;51.972;21.204;2022-12-18T14:43:54;28.00;;;11.10;;
50745;SDS011;36711;51.972;21.204;2022-12-18T14:46:34;31.20;;;11.10;;
50745;SDS011;36711;51.972;21.204;2022-12-18T14:49:51;25.50;;;10.30;;
50745;SDS011;36711;51.972;21.204;2022-12-18T14:51:59;24.00;;;10.40;;
50745;SDS011;36711;51.972;21.204;2022-12-18T14:54:30;24.60;;;9.80;;
50745;SDS011;36711;51.972;21.204;2022-12-18T14:57:00;26.80;;;9.20;;
50745;SDS011;36711;51.972;21.204;2022-12-18T14:59:30;28.40;;;9.90;;
50745;SDS011;36711;51.972;21.204;2022-12-18T15:04:47;30.00;;;10.90;;
50745;SDS011;36711;51.972;21.204;2022-12-18T15:12:34;27.20;;;10.10;;
50745;SDS011;36711;51.972;21.204;2022-12-18T15:15:04;23.40;;;9.90;;
50745;SDS011;36711;51.972;21.204;2022-12-18T15:17:33;21.90;;;9.30;;
50745;SDS011;36711;51.972;21.204;2022-12-18T15:20:02;22.60;;;9.20;;
50745;SDS011;36711;51.972;21.204;2022-12-18T15:22:35;24.50;;;9.70;;
50745;SDS011;36711;51.972;21.204;2022-12-18T15:25:28;23.40;;;9.40;;
50745;SDS011;36711;51.972;21.204;2022-12-18T15:27:53;23.90;;;9.50;;
50745;SDS011;36711;51.972;21.204;2022-12-18T15:30:23;25.70;;;9.00;;
50745;SDS011;36711;51.972;21.204;2022-12-18T15:32:52;24.40;;;9.60;;
50745;SDS011;36711;51.972;21.204;2022-12-18T15:35:41;22.60;;;8.90;;
50745;SDS011;36711;51.972;21.204;2022-12-18T15:38:14;20.80;;;9.10;;
50745;SDS011;36711;51.972;21.204;2022-12-18T15:40:43;23.60;;;9.40;;
50745;SDS011;36711;51.972;21.204;2022-12-18T15:43:12;23.30;;;8.80;;
50745;SDS011;36711;51.972;21.204;2022-12-18T15:46:06;27.30;;;9.40;;
50745;SDS011;36711;51.972;21.204;2022-12-18T15:48:39;20.70;;;8.40;;
50745;SDS011;36711;51.972;21.204;2022-12-18T15:53:42;28.00;;;9.80;;
50745;SDS011;36711;51.972;21.204;2022-12-18T15:56:12;21.50;;;8.40;;
50745;SDS011;36711;51.972;21.204;2022-12-18T15:59:01;21.80;;;8.50;;
50745;SDS011;36711;51.972;21.204;2022-12-18T16:01:30;20.80;;;8.50;;
50745;SDS011;36711;51.972;21.204;2022-12-18T16:04:00;20.10;;;9.10;;
50745;SDS011;36711;51.972;21.204;2022-12-18T16:06:29;22.00;;;10.00;;
50745;SDS011;36711;51.972;21.204;2022-12-18T16:09:17;22.90;;;9.10;;
50745;SDS011;36711;51.972;21.204;2022-12-18T16:11:53;27.00;;;9.70;;
50745;SDS011;36711;51.972;21.204;2022-12-18T16:14:23;21.50;;;8.60;;
50745;SDS011;36711;51.972;21.204;2022-12-18T16:16:54;25.50;;;8.90;;
50745;SDS011;36711;51.972;21.204;2022-12-18T16:19:23;18.60;;;8.60;;
50745;SDS011;36711;51.972;21.204;2022-12-18T16:21:52;21.50;;;8.40;;
50745;SDS011;36711;51.972;21.204;2022-12-18T16:24:27;21.50;;;8.40;;
50745;SDS011;36711;51.972;21.204;2022-12-18T16:26:56;21.40;;;8.80;;
50745;SDS011;36711;51.972;21.204;2022-12-18T16:29:26;24.60;;;9.20;;
50745;SDS011;36711;51.972;21.204;2022-12-18T16:31:56;22.00;;;9.20;;
50745;SDS011;36711;51.972;21.204;2022-12-18T16:34:29;18.90;;;8.50;;
50745;SDS011;36711;51.972;21.204;2022-12-18T16:37:06;22.20;;;8.90;;